Time;durP1;ratioP1;P1;durP2;ratioP2;P2;SDS_P1;SDS_P2;PMS_P1;PMS_P2;Temp;Humidity;BMP_temperature;BMP_pressure;BME280_temperature;BME280_humidity;BME280_pressure;Samples;Min_cycle;Max_cycle;Signal;HPM_P1;HPM_P2
2022/03/15 00:00:58;;;;;;;31.03;13.00;;;7.90;1.00;;;;;;5085196;28;20220;-72
2022/03/15 00:03:24;;;;;;;33.73;12.40;;;7.90;1.00;;;;;;5087875;28;20265;-65
2022/03/15 00:05:50;;;;;;;24.93;11.00;;;7.90;1.00;;;;;;5089703;28;20177;-65
2022/03/15 00:08:19;;;;;;;20.90;10.60;;;7.90;1.00;;;;;;5088656;28;20268;-74
2022/03/15 00:10:45;;;;;;;24.00;11.20;;;7.80;1.00;;;;;;5088199;28;20477;-65
2022/03/15 00:13:11;;;;;;;22.53;11.47;;;7.80;1.00;;;;;;5089028;28;20432;-66
2022/03/15 00:15:38;;;;;;;26.80;13.87;;;7.90;1.00;;;;;;5079782;28;20416;-65
2022/03/15 00:18:04;;;;;;;28.40;12.40;;;7.90;1.00;;;;;;5086525;28;20511;-65
2022/03/15 00:20:30;;;;;;;20.97;11.73;;;7.80;1.00;;;;;;5080617;28;20420;-69
2022/03/15 00:22:57;;;;;;;33.40;12.53;;;7.80;1.00;;;;;;5072358;28;20563;-65
2022/03/15 00:25:23;;;;;;;35.10;14.53;;;7.80;1.00;;;;;;5090216;28;20506;-65
2022/03/15 00:27:53;;;;;;;26.60;12.83;;;7.80;1.00;;;;;;5082173;28;20848;-65
2022/03/15 00:30:23;;;;;;;27.03;14.80;;;7.70;1.00;;;;;;5089427;28;20471;-75
2022/03/15 00:32:49;;;;;;;27.03;14.70;;;7.60;1.00;;;;;;5088501;28;20540;-64
2022/03/15 00:35:18;;;;;;;29.57;14.70;;;7.50;1.00;;;;;;5086515;28;20424;-65
2022/03/15 00:37:48;;;;;;;24.50;13.50;;;7.50;1.00;;;;;;5085914;28;20424;-62
2022/03/15 00:40:15;;;;;;;28.70;13.13;;;7.30;1.00;;;;;;5086518;28;20980;-72
2022/03/15 00:42:48;;;;;;;22.80;10.40;;;7.20;1.00;;;;;;5076630;28;20501;-71
2022/03/15 00:45:15;;;;;;;33.80;12.07;;;7.20;1.00;;;;;;5074354;28;20421;-71
2022/03/15 00:47:41;;;;;;;26.50;11.63;;;7.10;1.00;;;;;;5087967;28;20431;-65
2022/03/15 00:50:07;;;;;;;26.63;11.83;;;7.10;1.00;;;;;;5085248;28;20419;-74
2022/03/15 00:52:32;;;;;;;17.50;11.70;;;7.10;1.00;;;;;;5091922;28;20597;-73
2022/03/15 00:55:00;;;;;;;26.30;11.97;;;7.10;1.00;;;;;;5087949;28;20535;-67
2022/03/15 00:57:26;;;;;;;28.77;12.70;;;7.10;1.00;;;;;;5077607;28;20510;-67
2022/03/15 00:59:51;;;;;;;23.80;13.10;;;7.00;1.00;;;;;;5088210;28;20514;-63
2022/03/15 01:02:17;;;;;;;20.40;12.67;;;6.90;1.00;;;;;;5087316;28;20208;-71
2022/03/15 01:04:43;;;;;;;20.50;11.40;;;6.70;1.00;;;;;;5080670;28;20581;-68
2022/03/15 01:07:12;;;;;;;14.90;9.70;;;6.60;1.00;;;;;;5079482;28;20182;-69
2022/03/15 01:09:38;;;;;;;22.80;12.40;;;6.60;1.00;;;;;;5085847;28;20431;-66
2022/03/15 01:12:05;;;;;;;27.83;12.30;;;6.50;1.00;;;;;;5089266;28;20550;-74
2022/03/15 01:14:30;;;;;;;21.97;11.80;;;6.60;1.00;;;;;;5065776;28;20436;-73
2022/03/15 01:16:57;;;;;;;28.33;12.63;;;6.60;1.00;;;;;;5090005;28;20434;-62
2022/03/15 01:19:23;;;;;;;23.57;11.70;;;6.50;1.00;;;;;;5090150;28;20246;-71
2022/03/15 01:21:50;;;;;;;25.47;13.20;;;6.50;1.00;;;;;;5089442;28;20455;-62
2022/03/15 01:24:16;;;;;;;22.03;12.97;;;6.60;1.00;;;;;;5081356;28;20539;-63
2022/03/15 01:26:42;;;;;;;25.47;12.77;;;6.40;1.00;;;;;;5091873;28;20987;-63
2022/03/15 01:29:07;;;;;;;28.43;12.70;;;6.50;1.00;;;;;;5089114;28;20219;-70
2022/03/15 01:31:34;;;;;;;24.73;11.37;;;6.50;1.00;;;;;;5085139;28;20212;-67
2022/03/15 01:33:59;;;;;;;28.10;13.40;;;6.40;1.00;;;;;;5080569;28;20171;-66
2022/03/15 01:36:25;;;;;;;28.43;13.07;;;6.30;1.00;;;;;;5083901;28;20431;-74
2022/03/15 01:38:55;;;;;;;21.70;11.50;;;6.40;1.00;;;;;;5087586;28;20177;-74
2022/03/15 01:41:23;;;;;;;22.13;10.70;;;6.50;1.00;;;;;;5066561;28;20480;-66
2022/03/15 01:43:49;;;;;;;24.47;12.03;;;6.50;1.00;;;;;;5093369;28;20442;-62
2022/03/15 01:46:16;;;;;;;25.30;12.30;;;6.40;1.00;;;;;;5079361;28;20432;-72
2022/03/15 01:48:43;;;;;;;28.70;11.60;;;6.30;1.00;;;;;;5095275;28;20405;-70
2022/03/15 01:51:09;;;;;;;26.10;11.97;;;6.30;1.00;;;;;;5092817;28;20475;-71
2022/03/15 01:53:37;;;;;;;36.70;15.17;;;6.30;1.00;;;;;;5091695;28;20439;-75
2022/03/15 01:56:03;;;;;;;30.70;14.40;;;6.40;1.00;;;;;;5087554;28;20428;-72
2022/03/15 01:58:29;;;;;;;29.50;14.43;;;6.40;1.00;;;;;;5095051;28;20507;-71
2022/03/15 02:00:54;;;;;;;26.50;13.27;;;6.40;1.00;;;;;;5090770;28;20494;-64
2022/03/15 02:03:20;;;;;;;32.10;16.30;;;6.50;1.00;;;;;;5085850;28;20681;-62
2022/03/15 02:05:46;;;;;;;35.10;16.70;;;6.30;1.00;;;;;;5085400;28;20659;-65
2022/03/15 02:08:14;;;;;;;37.63;15.00;;;6.30;1.00;;;;;;5093353;28;20185;-73
2022/03/15 02:10:40;;;;;;;36.07;13.33;;;6.40;1.00;;;;;;5080896;28;20209;-65
2022/03/15 02:13:07;;;;;;;26.93;14.27;;;6.50;1.00;;;;;;5092172;28;20443;-75
2022/03/15 02:15:32;;;;;;;27.67;13.00;;;6.50;1.00;;;;;;5094848;28;20517;-63
2022/03/15 02:17:58;;;;;;;29.33;13.33;;;6.40;1.00;;;;;;5089164;28;20911;-62
2022/03/15 02:20:24;;;;;;;33.33;13.50;;;6.40;1.00;;;;;;5091948;28;20203;-68
2022/03/15 02:22:50;;;;;;;29.10;14.53;;;6.40;1.00;;;;;;5079162;28;20456;-71
2022/03/15 02:25:16;;;;;;;29.07;14.57;;;6.40;1.00;;;;;;5080650;28;20848;-68
2022/03/15 02:27:42;;;;;;;33.23;14.00;;;6.40;1.00;;;;;;5081467;28;20175;-75
2022/03/15 02:30:09;;;;;;;32.93;15.80;;;6.40;1.00;;;;;;5082197;28;20180;-65
2022/03/15 02:32:35;;;;;;;43.23;16.80;;;6.40;1.00;;;;;;5082419;28;20502;-71
2022/03/15 02:35:01;;;;;;;31.63;15.30;;;6.40;1.00;;;;;;5094529;28;20836;-71
2022/03/15 02:37:27;;;;;;;46.77;15.90;;;6.40;1.00;;;;;;5086492;28;20570;-71
2022/03/15 02:39:53;;;;;;;37.33;13.43;;;6.40;1.00;;;;;;5091038;28;20431;-70
2022/03/15 02:42:19;;;;;;;29.13;14.20;;;6.40;1.00;;;;;;5080178;28;20201;-63
2022/03/15 02:44:45;;;;;;;33.03;14.03;;;6.40;1.00;;;;;;5079256;28;20242;-67
2022/03/15 02:47:10;;;;;;;23.33;13.23;;;6.40;1.00;;;;;;5090812;28;20427;-68
2022/03/15 02:49:36;;;;;;;34.97;14.80;;;6.40;1.00;;;;;;5089154;28;20796;-72
2022/03/15 02:52:03;;;;;;;36.10;14.90;;;6.40;1.00;;;;;;5090360;28;20205;-71
2022/03/15 02:54:28;;;;;;;23.47;12.93;;;6.50;1.00;;;;;;5091710;28;20785;-64
2022/03/15 02:56:54;;;;;;;34.43;16.03;;;6.40;1.00;;;;;;5093203;28;20427;-72
2022/03/15 02:59:20;;;;;;;32.20;15.43;;;6.40;1.00;;;;;;5092631;28;20182;-72
2022/03/15 03:01:47;;;;;;;38.60;14.70;;;6.40;1.00;;;;;;5078246;28;20209;-63
2022/03/15 03:04:14;;;;;;;28.30;12.90;;;6.40;1.00;;;;;;5091654;28;20205;-63
2022/03/15 03:06:41;;;;;;;38.80;14.47;;;6.40;1.00;;;;;;5081190;28;20436;-73
2022/03/15 03:09:07;;;;;;;35.60;15.17;;;6.50;1.00;;;;;;5074124;28;20444;-63
2022/03/15 03:11:32;;;;;;;28.93;12.67;;;6.50;1.00;;;;;;5072131;28;20486;-73
2022/03/15 03:13:58;;;;;;;40.07;13.53;;;6.50;1.00;;;;;;5085974;28;20476;-73
2022/03/15 03:16:26;;;;;;;24.17;12.90;;;6.50;1.00;;;;;;5088055;28;20203;-67
2022/03/15 03:18:53;;;;;;;31.90;14.03;;;6.50;1.00;;;;;;5066291;28;20753;-74
2022/03/15 03:21:18;;;;;;;31.43;11.77;;;6.40;1.00;;;;;;5087279;28;20798;-75
2022/03/15 03:23:44;;;;;;;23.10;11.67;;;6.40;1.00;;;;;;5089857;28;20424;-73
2022/03/15 03:26:10;;;;;;;26.90;11.60;;;6.50;1.00;;;;;;5091644;28;20261;-64
2022/03/15 03:28:39;;;;;;;27.57;13.57;;;6.50;1.00;;;;;;5093479;28;20169;-71
2022/03/15 03:31:09;;;;;;;27.30;12.70;;;6.50;1.00;;;;;;5089143;28;20463;-75
2022/03/15 03:33:35;;;;;;;32.83;12.90;;;6.50;1.00;;;;;;5093417;28;20431;-65
2022/03/15 03:36:01;;;;;;;22.20;11.83;;;6.50;1.00;;;;;;5081189;28;20463;-64
2022/03/15 03:38:28;;;;;;;31.83;11.53;;;6.50;1.00;;;;;;5086871;28;20481;-74
2022/03/15 03:40:54;;;;;;;22.53;11.53;;;6.50;1.00;;;;;;5080315;28;20463;-72
2022/03/15 03:43:20;;;;;;;34.33;13.27;;;6.50;1.00;;;;;;5080815;28;20493;-68
2022/03/15 03:45:46;;;;;;;21.43;11.40;;;6.50;1.00;;;;;;5090479;28;20439;-65
2022/03/15 03:48:12;;;;;;;31.90;15.60;;;6.50;1.00;;;;;;5073137;28;20439;-72
2022/03/15 03:50:38;;;;;;;28.23;13.47;;;6.50;1.00;;;;;;5080850;28;20205;-64
2022/03/15 03:53:04;;;;;;;19.90;11.97;;;6.50;1.00;;;;;;5091522;28;20467;-73
2022/03/15 03:55:31;;;;;;;39.10;13.47;;;6.40;1.00;;;;;;5071691;28;20835;-63
2022/03/15 03:57:56;;;;;;;29.10;12.13;;;6.40;1.00;;;;;;5074795;28;20757;-75
2022/03/15 04:00:22;;;;;;;19.70;12.13;;;6.40;1.00;;;;;;5086242;28;20489;-65
2022/03/15 04:02:48;;;;;;;25.70;10.57;;;6.40;1.00;;;;;;5082842;28;20232;-65
2022/03/15 04:05:15;;;;;;;31.50;10.37;;;6.40;1.00;;;;;;5083198;28;20174;-72
2022/03/15 04:07:41;;;;;;;20.00;10.90;;;6.30;1.00;;;;;;5085334;28;20173;-63
2022/03/15 04:10:09;;;;;;;19.83;10.47;;;6.20;1.00;;;;;;5080871;28;20472;-72
2022/03/15 04:12:36;;;;;;;19.07;9.67;;;6.20;1.00;;;;;;5092608;28;20455;-72
2022/03/15 04:15:03;;;;;;;27.57;11.87;;;6.10;1.00;;;;;;5088183;28;20463;-65
2022/03/15 04:17:29;;;;;;;18.23;8.73;;;6.20;1.00;;;;;;5081203;28;20488;-63
2022/03/15 04:19:54;;;;;;;18.50;9.90;;;6.00;1.00;;;;;;5070554;28;20913;-74
2022/03/15 04:22:20;;;;;;;18.40;9.80;;;6.00;1.00;;;;;;5084550;28;20678;-65
2022/03/15 04:24:46;;;;;;;19.47;9.77;;;6.10;1.00;;;;;;5090081;28;20580;-74
2022/03/15 04:27:11;;;;;;;17.80;9.40;;;6.10;1.00;;;;;;5088142;28;20205;-72
2022/03/15 04:29:37;;;;;;;16.20;10.27;;;6.10;1.00;;;;;;5085494;28;20259;-65
2022/03/15 04:32:04;;;;;;;20.87;10.50;;;6.10;1.00;;;;;;5082954;28;20213;-65
2022/03/15 04:34:30;;;;;;;19.40;10.57;;;6.10;1.00;;;;;;5090476;28;20634;-65
2022/03/15 04:36:57;;;;;;;19.07;9.73;;;6.20;1.00;;;;;;5090470;28;21046;-75
2022/03/15 04:39:22;;;;;;;22.20;11.33;;;6.10;1.00;;;;;;5082382;28;20431;-65
2022/03/15 04:41:49;;;;;;;32.13;11.73;;;6.10;1.00;;;;;;5091197;28;20954;-65
2022/03/15 04:44:15;;;;;;;19.00;11.13;;;6.00;1.00;;;;;;5090856;28;20180;-64
2022/03/15 04:46:40;;;;;;;18.97;10.57;;;6.00;1.00;;;;;;5081832;28;20436;-65
2022/03/15 04:49:06;;;;;;;21.27;12.37;;;6.10;1.00;;;;;;5073824;28;20433;-74
2022/03/15 04:51:32;;;;;;;15.53;9.47;;;6.10;1.00;;;;;;5085832;28;20205;-75
2022/03/15 04:53:57;;;;;;;23.17;11.03;;;6.10;1.00;;;;;;5089798;28;20177;-70
2022/03/15 04:56:23;;;;;;;25.43;10.23;;;6.10;1.00;;;;;;5088729;28;20257;-72
2022/03/15 04:58:49;;;;;;;16.20;10.43;;;6.00;1.00;;;;;;5087876;28;20807;-74
2022/03/15 05:01:14;;;;;;;21.23;10.53;;;6.10;1.00;;;;;;5078000;28;20209;-69
2022/03/15 05:03:40;;;;;;;21.40;10.77;;;6.10;1.00;;;;;;5091429;28;20205;-65
2022/03/15 05:06:06;;;;;;;18.63;8.90;;;6.10;1.00;;;;;;5076124;28;20801;-74
2022/03/15 05:08:32;;;;;;;16.33;9.37;;;6.00;1.00;;;;;;5079706;28;20635;-72
2022/03/15 05:11:06;;;;;;;26.83;10.07;;;5.90;1.00;;;;;;5082910;28;20662;-64
2022/03/15 05:13:40;;;;;;;20.47;11.40;;;5.90;1.00;;;;;;5089851;28;20169;-63
2022/03/15 05:16:11;;;;;;;31.37;13.10;;;5.90;1.00;;;;;;5071509;28;20513;-73
2022/03/15 05:18:37;;;;;;;17.13;9.43;;;5.90;1.00;;;;;;5084471;28;20430;-73
2022/03/15 05:21:03;;;;;;;20.73;11.20;;;5.90;1.00;;;;;;5086973;28;20606;-71
2022/03/15 05:23:29;;;;;;;20.50;9.13;;;5.90;1.00;;;;;;5085893;28;21184;-71
2022/03/15 05:25:55;;;;;;;25.97;12.23;;;5.80;1.00;;;;;;5087997;28;20432;-65
2022/03/15 05:28:21;;;;;;;26.77;12.00;;;5.80;1.00;;;;;;5087220;28;20486;-72
2022/03/15 05:30:46;;;;;;;27.03;12.43;;;5.80;1.00;;;;;;5089022;28;20584;-74
2022/03/15 05:33:12;;;;;;;32.77;12.67;;;5.80;1.00;;;;;;5081905;28;20177;-73
2022/03/15 05:35:38;;;;;;;20.43;10.23;;;5.80;1.00;;;;;;5075670;28;20717;-65
2022/03/15 05:38:04;;;;;;;21.47;12.43;;;5.90;1.00;;;;;;5082368;28;20252;-65
2022/03/15 05:40:30;;;;;;;27.40;12.07;;;5.90;1.00;;;;;;5083857;28;20174;-65
2022/03/15 05:42:56;;;;;;;23.07;10.27;;;5.80;1.00;;;;;;5075724;28;20471;-72
2022/03/15 05:45:22;;;;;;;24.13;13.20;;;5.80;1.00;;;;;;5080306;28;20457;-66
2022/03/15 05:47:48;;;;;;;21.50;11.20;;;5.80;1.00;;;;;;5084593;28;20516;-71
2022/03/15 05:50:14;;;;;;;38.37;13.77;;;5.80;1.00;;;;;;5091280;28;20462;-72
2022/03/15 05:52:40;;;;;;;27.60;12.27;;;5.80;1.00;;;;;;5092218;28;20462;-65
2022/03/15 05:55:06;;;;;;;34.20;13.90;;;5.80;1.00;;;;;;5093414;28;20423;-74
2022/03/15 05:57:32;;;;;;;37.00;12.40;;;5.90;1.00;;;;;;5087335;28;20516;-65
2022/03/15 05:59:57;;;;;;;30.70;11.77;;;5.80;1.00;;;;;;5075220;28;20443;-74
2022/03/15 06:02:23;;;;;;;29.23;12.67;;;5.80;1.00;;;;;;5083608;28;20206;-75
2022/03/15 06:04:49;;;;;;;22.73;12.23;;;5.90;1.00;;;;;;5091047;28;20203;-69
2022/03/15 06:07:14;;;;;;;27.80;12.97;;;5.90;1.00;;;;;;5088261;28;20173;-66
2022/03/15 06:09:40;;;;;;;30.03;13.43;;;6.00;1.00;;;;;;5087598;28;20702;-66
2022/03/15 06:12:07;;;;;;;26.27;13.40;;;6.00;1.00;;;;;;5086788;28;20208;-65
2022/03/15 06:14:32;;;;;;;30.07;14.13;;;6.00;1.00;;;;;;5072405;28;20177;-70
2022/03/15 06:16:58;;;;;;;36.23;14.03;;;5.90;1.00;;;;;;5091889;28;20427;-66
2022/03/15 06:19:24;;;;;;;32.90;14.47;;;5.90;1.00;;;;;;5088334;28;20174;-74
2022/03/15 06:21:49;;;;;;;27.67;9.60;;;5.90;1.00;;;;;;5087757;28;20196;-64
2022/03/15 06:24:15;;;;;;;28.27;12.50;;;5.90;1.00;;;;;;5090479;28;20214;-63
2022/03/15 06:26:42;;;;;;;26.83;12.40;;;5.90;1.00;;;;;;5089932;28;20182;-63
2022/03/15 06:29:08;;;;;;;25.53;12.47;;;5.90;1.00;;;;;;5089616;28;20178;-66
2022/03/15 06:31:34;;;;;;;32.13;12.27;;;5.90;1.00;;;;;;5094224;28;20466;-64
2022/03/15 06:34:01;;;;;;;28.73;13.10;;;6.00;1.00;;;;;;5091049;28;20201;-72
2022/03/15 06:36:26;;;;;;;33.67;11.77;;;6.10;1.00;;;;;;5076528;28;20554;-70
2022/03/15 06:38:53;;;;;;;22.90;12.20;;;6.10;1.00;;;;;;5083683;28;20952;-69
2022/03/15 06:41:19;;;;;;;39.28;16.15;;;6.00;1.00;;;;;;5073955;28;20504;-72
2022/03/15 06:43:45;;;;;;;41.37;16.43;;;6.10;1.00;;;;;;5083719;28;20177;-73
2022/03/15 06:46:11;;;;;;;32.97;16.70;;;6.10;1.00;;;;;;5081674;28;20432;-64
2022/03/15 06:48:37;;;;;;;33.43;14.17;;;6.10;1.00;;;;;;5080552;28;20174;-71
2022/03/15 06:51:02;;;;;;;35.53;14.70;;;6.20;1.00;;;;;;5095162;28;20270;-71
2022/03/15 06:53:29;;;;;;;33.90;14.07;;;6.10;1.00;;;;;;5088517;28;20432;-70
2022/03/15 06:55:55;;;;;;;23.93;14.20;;;6.10;1.00;;;;;;5095225;28;20249;-68
2022/03/15 06:58:21;;;;;;;29.50;13.70;;;6.00;1.00;;;;;;5094167;28;20499;-71
2022/03/15 07:00:47;;;;;;;29.00;13.53;;;6.00;1.00;;;;;;5094006;28;20461;-62
2022/03/15 07:03:13;;;;;;;26.03;13.47;;;6.00;1.00;;;;;;5083700;28;20431;-64
2022/03/15 07:05:40;;;;;;;32.43;14.70;;;5.90;1.00;;;;;;5075402;28;20430;-70
2022/03/15 07:08:06;;;;;;;24.60;10.87;;;6.00;1.00;;;;;;5084578;28;20967;-71
2022/03/15 07:10:32;;;;;;;22.60;10.63;;;5.90;1.00;;;;;;5073577;28;20396;-63
2022/03/15 07:12:58;;;;;;;30.43;13.63;;;5.80;1.00;;;;;;5074827;28;20416;-70
2022/03/15 07:15:24;;;;;;;19.67;11.57;;;5.90;1.00;;;;;;5094759;28;20403;-70
2022/03/15 07:17:55;;;;;;;32.57;13.70;;;5.90;1.00;;;;;;5084664;28;20423;-73
2022/03/15 07:20:22;;;;;;;22.30;10.50;;;5.90;1.00;;;;;;5073478;28;20189;-64
2022/03/15 07:22:49;;;;;;;37.00;15.37;;;6.00;1.00;;;;;;5082457;28;20790;-71
2022/03/15 07:25:14;;;;;;;23.37;12.10;;;5.80;1.00;;;;;;5073981;28;20400;-71
2022/03/15 07:27:40;;;;;;;19.30;10.87;;;5.80;1.00;;;;;;5081416;28;20431;-62
2022/03/15 07:30:07;;;;;;;31.57;11.50;;;5.80;1.00;;;;;;5093629;28;20465;-70
2022/03/15 07:32:33;;;;;;;21.83;12.60;;;5.80;1.00;;;;;;5090702;28;20489;-71
2022/03/15 07:34:59;;;;;;;29.50;12.27;;;5.70;1.00;;;;;;5093722;28;20500;-72
2022/03/15 07:37:24;;;;;;;32.20;13.20;;;5.80;1.00;;;;;;5067830;28;20846;-73
2022/03/15 07:39:50;;;;;;;47.27;13.90;;;5.90;1.00;;;;;;5054391;28;20194;-73
2022/03/15 07:42:16;;;;;;;25.43;12.57;;;5.90;1.00;;;;;;5073697;28;20269;-62
2022/03/15 07:44:45;;;;;;;22.83;9.77;;;6.10;1.00;;;;;;5055728;28;20247;-70
2022/03/15 07:47:14;;;;;;;29.13;11.80;;;6.10;1.00;;;;;;5073876;28;20169;-72
2022/03/15 07:49:40;;;;;;;34.20;12.60;;;6.20;1.00;;;;;;5082146;28;20445;-74
2022/03/15 07:52:06;;;;;;;24.83;13.30;;;6.20;1.00;;;;;;5093731;28;20451;-64
2022/03/15 07:54:32;;;;;;;28.43;11.10;;;6.30;1.00;;;;;;5093989;28;20490;-70
2022/03/15 07:56:57;;;;;;;35.20;13.03;;;6.30;1.00;;;;;;5091931;28;20511;-74
2022/03/15 07:59:23;;;;;;;21.80;10.50;;;6.30;1.00;;;;;;5093144;28;20171;-64
2022/03/15 08:01:49;;;;;;;35.43;13.37;;;6.30;1.00;;;;;;5092150;28;20212;-64
2022/03/15 08:04:14;;;;;;;24.63;11.97;;;6.40;1.00;;;;;;5090112;28;20265;-65
2022/03/15 08:06:40;;;;;;;25.80;13.27;;;6.50;1.00;;;;;;5079456;28;20202;-73
2022/03/15 08:09:06;;;;;;;29.23;11.70;;;6.50;1.00;;;;;;5072567;28;20261;-64
2022/03/15 08:11:32;;;;;;;19.37;10.57;;;6.60;1.00;;;;;;5089997;28;20205;-65
2022/03/15 08:13:59;;;;;;;18.73;10.17;;;6.60;1.00;;;;;;5075244;28;20776;-72
2022/03/15 08:16:25;;;;;;;28.43;13.67;;;6.70;1.00;;;;;;5077521;28;20431;-69
2022/03/15 08:18:53;;;;;;;24.50;12.23;;;6.80;1.00;;;;;;5087416;28;20428;-73
2022/03/15 08:21:20;;;;;;;27.50;13.77;;;6.80;1.00;;;;;;5086975;28;20467;-66
2022/03/15 08:23:46;;;;;;;22.30;11.20;;;6.80;1.00;;;;;;5092754;28;20410;-65
2022/03/15 08:26:13;;;;;;;27.73;11.20;;;6.80;1.00;;;;;;5080604;28;20774;-67
2022/03/15 08:28:38;;;;;;;17.37;10.17;;;6.80;1.00;;;;;;5072396;28;20408;-70
2022/03/15 08:31:04;;;;;;;23.70;10.97;;;6.90;1.00;;;;;;5083599;28;20454;-69
2022/03/15 08:33:30;;;;;;;19.87;10.23;;;6.90;1.00;;;;;;5091432;28;20443;-66
2022/03/15 08:35:56;;;;;;;22.10;11.97;;;6.90;1.00;;;;;;5083772;28;20267;-65
2022/03/15 08:38:21;;;;;;;28.97;12.20;;;6.90;1.00;;;;;;5054883;28;20173;-73
2022/03/15 08:40:47;;;;;;;26.03;11.50;;;6.90;1.00;;;;;;5079167;28;20241;-64
2022/03/15 08:43:13;;;;;;;39.77;12.30;;;7.00;1.00;;;;;;5092552;28;20423;-70
2022/03/15 08:45:39;;;;;;;32.90;13.37;;;7.10;1.00;;;;;;5087525;28;20170;-64
2022/03/15 08:48:05;;;;;;;25.77;12.80;;;7.20;1.00;;;;;;5072955;28;20175;-64
2022/03/15 08:50:31;;;;;;;21.07;11.47;;;7.30;1.00;;;;;;5076273;28;20466;-72
2022/03/15 08:52:57;;;;;;;24.37;11.67;;;7.40;1.00;;;;;;5072505;28;20444;-71
2022/03/15 08:55:24;;;;;;;18.53;9.70;;;7.40;1.00;;;;;;5078320;28;20170;-64
2022/03/15 08:57:49;;;;;;;20.40;11.20;;;7.40;1.00;;;;;;5093173;28;20396;-71
2022/03/15 09:00:16;;;;;;;32.33;11.60;;;7.30;1.00;;;;;;5089865;28;20511;-65
2022/03/15 09:02:41;;;;;;;22.43;11.43;;;7.40;1.00;;;;;;5081423;28;20221;-64
2022/03/15 09:05:08;;;;;;;26.43;11.93;;;7.50;1.00;;;;;;5085549;28;20920;-72
2022/03/15 09:07:36;;;;;;;29.90;11.53;;;7.60;1.00;;;;;;5075617;28;20173;-67
2022/03/15 09:10:03;;;;;;;19.63;11.60;;;7.50;1.00;;;;;;5079696;28;20416;-63
2022/03/15 09:12:28;;;;;;;27.13;12.60;;;7.50;1.00;;;;;;5072875;28;20518;-64
2022/03/15 09:14:54;;;;;;;21.33;10.80;;;7.60;1.00;;;;;;5072396;28;21024;-63
2022/03/15 09:17:20;;;;;;;18.93;11.60;;;7.60;1.00;;;;;;5072477;28;20174;-63
2022/03/15 09:20:04;;;;;;;24.87;11.13;;;7.40;1.00;;;;;;5071786;28;20304;-71
2022/03/15 09:22:39;;;;;;;18.90;10.23;;;7.30;1.00;;;;;;5072625;28;20444;-64
2022/03/15 09:25:06;;;;;;;17.27;9.90;;;7.40;1.00;;;;;;5074697;28;20403;-71
2022/03/15 09:27:31;;;;;;;20.30;11.17;;;7.30;1.00;;;;;;5080839;28;20428;-69
2022/03/15 09:29:58;;;;;;;19.83;10.30;;;7.30;1.00;;;;;;5076366;28;20416;-71
2022/03/15 09:32:24;;;;;;;19.83;10.53;;;7.30;1.00;;;;;;5081400;28;20294;-65
2022/03/15 09:34:50;;;;;;;26.60;10.63;;;7.40;1.00;;;;;;5072428;28;20401;-63
2022/03/15 09:37:16;;;;;;;14.13;9.80;;;7.50;1.00;;;;;;5072433;28;20954;-65
2022/03/15 09:39:43;;;;;;;15.40;10.50;;;7.70;1.00;;;;;;5077396;28;20178;-72
2022/03/15 09:42:10;;;;;;;20.13;10.83;;;7.80;1.00;;;;;;5092597;28;20419;-72
2022/03/15 09:44:39;;;;;;;26.63;11.90;;;8.00;1.00;;;;;;5091960;28;20425;-71
2022/03/15 09:47:06;;;;;;;34.73;13.70;;;8.00;1.00;;;;;;5092774;28;20400;-63
2022/03/15 09:49:33;;;;;;;22.43;12.03;;;8.00;1.00;;;;;;5086236;28;20459;-65
2022/03/15 09:51:59;;;;;;;18.80;10.57;;;8.10;1.00;;;;;;5072043;28;20469;-72
2022/03/15 09:54:27;;;;;;;36.20;12.87;;;8.10;1.00;;;;;;5072450;28;20480;-72
2022/03/15 09:56:53;;;;;;;22.57;12.03;;;8.10;1.00;;;;;;5072043;28;20410;-71
2022/03/15 09:59:21;;;;;;;20.43;9.23;;;8.10;1.00;;;;;;5071142;28;20734;-72
2022/03/15 10:01:50;;;;;;;22.10;11.50;;;8.00;1.00;;;;;;5072239;28;20417;-72
2022/03/15 10:04:17;;;;;;;17.27;9.07;;;8.10;1.00;;;;;;5074335;28;20441;-64
2022/03/15 10:06:43;;;;;;;25.33;11.17;;;8.10;1.00;;;;;;5085800;28;20420;-72
2022/03/15 10:09:09;;;;;;;20.73;10.20;;;8.20;1.00;;;;;;5095200;28;20408;-72
2022/03/15 10:11:36;;;;;;;23.53;9.70;;;8.30;1.00;;;;;;5095771;28;20460;-64
2022/03/15 10:14:04;;;;;;;15.13;9.30;;;8.40;1.00;;;;;;5095886;28;20882;-64
2022/03/15 10:16:31;;;;;;;25.73;10.87;;;8.50;1.00;;;;;;5095372;28;20392;-64
2022/03/15 10:18:58;;;;;;;15.67;10.23;;;8.70;1.00;;;;;;5095015;28;20402;-64
2022/03/15 10:21:25;;;;;;;17.37;8.83;;;8.80;99.90;;;;;;5077594;28;20437;-64
2022/03/15 10:23:54;;;;;;;18.70;10.27;;;8.90;99.90;;;;;;5093949;28;20770;-69
2022/03/15 10:26:27;;;;;;;12.80;8.60;;;9.20;99.90;;;;;;5095735;28;20403;-63
2022/03/15 10:28:55;;;;;;;13.40;8.97;;;9.50;99.90;;;;;;5094854;28;20404;-72
2022/03/15 10:31:23;;;;;;;19.40;8.97;;;9.80;99.90;;;;;;5095552;28;20460;-72
2022/03/15 10:33:52;;;;;;;18.50;8.83;;;9.80;99.90;;;;;;5095010;28;20395;-64
2022/03/15 10:36:19;;;;;;;19.30;8.63;;;9.80;99.90;;;;;;5095580;28;20404;-64
2022/03/15 10:38:50;;;;;;;23.80;11.67;;;10.20;99.90;;;;;;5090659;28;20515;-72
2022/03/15 10:41:16;;;;;;;20.70;10.53;;;10.50;99.90;;;;;;5075174;28;20418;-70
2022/03/15 10:43:43;;;;;;;17.07;9.80;;;10.70;99.90;;;;;;5075215;28;20864;-72
2022/03/15 10:46:12;;;;;;;15.73;8.27;;;10.80;99.90;;;;;;5075115;28;20412;-71
2022/03/15 10:48:39;;;;;;;9.73;6.47;;;10.70;99.90;;;;;;5074166;28;20958;-64
2022/03/15 10:51:10;;;;;;;15.13;9.73;;;10.50;99.90;;;;;;5074387;28;20443;-64
2022/03/15 10:53:47;;;;;;;15.47;9.07;;;10.60;99.90;;;;;;5074884;28;20424;-64
2022/03/15 10:56:20;;;;;;;19.87;10.47;;;10.80;99.90;;;;;;5086997;28;20506;-72
2022/03/15 10:58:47;;;;;;;22.87;10.63;;;11.10;99.90;;;;;;5094264;28;20399;-70
2022/03/15 11:01:13;;;;;;;15.27;9.83;;;11.30;99.90;;;;;;5095080;28;20892;-68
2022/03/15 11:03:38;;;;;;;12.00;8.40;;;11.40;99.90;;;;;;5095026;28;20396;-72
2022/03/15 11:06:08;;;;;;;19.70;10.33;;;11.60;99.90;;;;;;5094935;28;20395;-65
2022/03/15 11:08:36;;;;;;;18.67;10.40;;;11.70;81.70;;;;;;5093651;28;20248;-65
2022/03/15 11:11:06;;;;;;;17.87;11.33;;;11.80;33.80;;;;;;5093002;28;20545;-64
2022/03/15 11:13:32;;;;;;;22.27;11.40;;;11.60;1.00;;;;;;5094797;28;20896;-64
2022/03/15 11:15:59;;;;;;;19.17;11.40;;;11.60;1.00;;;;;;5094607;28;20479;-64
2022/03/15 11:18:29;;;;;;;20.30;11.97;;;11.60;1.00;;;;;;5094563;28;20381;-72
2022/03/15 11:20:57;;;;;;;16.83;10.93;;;11.50;1.00;;;;;;5094347;28;20423;-64
2022/03/15 11:23:23;;;;;;;11.97;9.00;;;11.60;1.00;;;;;;5094659;28;20407;-72
2022/03/15 11:25:56;;;;;;;12.70;9.13;;;11.60;1.00;;;;;;5094100;28;20412;-71
2022/03/15 11:28:30;;;;;;;20.17;11.60;;;11.50;1.00;;;;;;5084624;28;20432;-71
2022/03/15 11:30:57;;;;;;;19.13;10.10;;;11.50;1.00;;;;;;5074085;28;20475;-73
2022/03/15 11:33:24;;;;;;;14.40;10.20;;;11.30;1.00;;;;;;5074181;28;20463;-64
2022/03/15 11:35:50;;;;;;;20.77;11.63;;;11.30;1.00;;;;;;5074203;28;20404;-64
2022/03/15 11:38:18;;;;;;;25.50;13.60;;;11.10;1.00;;;;;;5074102;28;20795;-64
2022/03/15 11:40:45;;;;;;;25.63;12.63;;;11.10;1.00;;;;;;5073151;28;20383;-72
2022/03/15 11:43:30;;;;;;;27.03;14.80;;;11.10;1.00;;;;;;5073365;28;20371;-65
2022/03/15 11:46:00;;;;;;;28.80;13.23;;;11.20;1.00;;;;;;5074862;28;20913;-71
2022/03/15 11:49:05;;;;;;;17.10;11.07;;;11.20;1.00;;;;;;5073663;28;20450;-67
2022/03/15 11:51:50;;;;;;;24.90;13.20;;;11.30;1.00;;;;;;5071911;28;20471;-72
2022/03/15 11:54:58;;;;;;;16.53;10.07;;;11.60;1.00;;;;;;5073637;28;20436;-65
2022/03/15 11:57:25;;;;;;;14.70;8.60;;;11.90;1.00;;;;;;5073728;28;20411;-64
2022/03/15 11:59:53;;;;;;;12.57;8.07;;;12.20;1.00;;;;;;5072786;28;20379;-71
2022/03/15 12:02:39;;;;;;;16.07;9.70;;;12.70;1.00;;;;;;5055329;28;20514;-72
2022/03/15 12:05:18;;;;;;;19.53;8.60;;;12.80;1.00;;;;;;5073738;28;20448;-64
2022/03/15 12:07:46;;;;;;;15.13;8.17;;;12.80;1.00;;;;;;5073735;28;20390;-71
2022/03/15 12:10:28;;;;;;;10.90;7.60;;;12.90;1.00;;;;;;5072639;28;20380;-72
2022/03/15 12:13:02;;;;;;;13.50;8.83;;;13.30;1.00;;;;;;5073288;28;20451;-72
2022/03/15 12:15:39;;;;;;;9.70;6.80;;;13.60;1.00;;;;;;5073405;28;20897;-72
2022/03/15 12:21:03;;;;;;;5.80;5.23;;;13.80;1.00;;;;;;5072246;28;20404;-64
2022/03/15 12:23:42;;;;;;;10.43;6.40;;;13.80;99.90;;;;;;5055537;28;20747;-71
2022/03/15 12:26:22;;;;;;;12.47;6.03;;;13.30;99.90;;;;;;5072785;28;20412;-64
2022/03/15 12:29:03;;;;;;;10.17;6.00;;;13.20;99.90;;;;;;5071808;28;20394;-72
2022/03/15 12:31:45;;;;;;;9.37;5.80;;;13.30;99.90;;;;;;5073039;28;20454;-71
2022/03/15 12:34:17;;;;;;;14.03;5.70;;;13.50;99.90;;;;;;5080255;28;20403;-72
2022/03/15 12:36:59;;;;;;;8.70;5.17;;;13.40;99.90;;;;;;5092324;28;20397;-64
2022/03/15 12:39:27;;;;;;;6.47;5.03;;;13.20;99.90;;;;;;5090332;28;20470;-72
2022/03/15 12:42:10;;;;;;;10.63;4.83;;;13.20;99.90;;;;;;5093197;28;20386;-71
2022/03/15 12:44:50;;;;;;;11.93;5.70;;;13.30;99.90;;;;;;5083030;28;20471;-64
2022/03/15 12:47:22;;;;;;;9.73;4.93;;;13.60;99.90;;;;;;5073070;28;20390;-65
2022/03/15 12:50:21;;;;;;;9.03;4.70;;;13.90;99.90;;;;;;5079416;28;20416;-64